createdAt,value
2023-01-03T00:00:41.136Z,99616.84
2023-01-03T00:02:43.051Z,99630.56
2023-01-03T00:04:49.411Z,99639.00
2023-01-03T00:06:53.198Z,99631.88
2023-01-03T00:08:56.020Z,99640.09
2023-01-03T00:10:58.435Z,99637.56
2023-01-03T00:13:00.674Z,99640.56
2023-01-03T00:15:03.225Z,99638.66
2023-01-03T00:17:06.404Z,99632.59
2023-01-03T00:19:10.476Z,99624.38
2023-01-03T00:21:13.840Z,99613.91
2023-01-03T00:23:17.012Z,99599.38
2023-01-03T00:25:18.721Z,99600.44
2023-01-03T00:27:36.881Z,99599.88
2023-01-03T00:29:38.672Z,99588.31
2023-01-03T00:31:41.309Z,99598.44
2023-01-03T00:33:43.084Z,99595.97
2023-01-03T00:35:47.215Z,99600.84
2023-01-03T00:37:48.858Z,99616.47
2023-01-03T00:39:50.662Z,99623.59
2023-01-03T00:41:52.646Z,99625.50
2023-01-03T00:43:56.506Z,99622.16
2023-01-03T00:45:58.864Z,99626.00
2023-01-03T00:48:00.469Z,99625.41
2023-01-03T00:50:02.199Z,99621.00
2023-01-03T00:52:03.873Z,99621.00
2023-01-03T00:54:09.189Z,99625.06
2023-01-03T00:56:14.037Z,99627.78
2023-01-03T00:58:16.071Z,99629.94
2023-01-03T01:00:17.683Z,99638.38
2023-01-03T01:02:20.732Z,99646.59
2023-01-03T01:04:28.790Z,99650.44
2023-01-03T01:06:33.872Z,99653.16
2023-01-03T01:08:38.379Z,99659.72
2023-01-03T01:11:01.768Z,99659.72
2023-01-03T01:13:03.705Z,99661.88
2023-01-03T01:15:06.512Z,99663.75
2023-01-03T01:17:11.597Z,99659.38
2023-01-03T01:19:13.664Z,99662.34
2023-01-03T01:21:20.138Z,99663.44
2023-01-03T01:23:21.778Z,99660.06
2023-01-03T01:28:43.131Z,99658.91
2023-01-03T01:33:56.604Z,99672.75
2023-01-03T01:35:58.374Z,99681.19
2023-01-03T01:37:59.930Z,99676.78
2023-01-03T01:40:05.157Z,99675.13
2023-01-03T01:42:31.098Z,99670.13
2023-01-03T01:45:03.226Z,99668.91
2023-01-03T01:47:25.831Z,99679.25
2023-01-03T01:49:29.391Z,99685.44
2023-01-03T01:51:34.009Z,99682.09
2023-01-03T01:53:37.914Z,99680.94
2023-01-03T01:55:52.068Z,99687.72
2023-01-03T01:57:54.019Z,99688.19
2023-01-03T01:59:59.732Z,99685.66
2023-01-03T02:02:01.603Z,99686.97
2023-01-03T02:04:08.629Z,99691.84
2023-01-03T02:06:15.194Z,99697.00
2023-01-03T02:08:17.547Z,99698.88
2023-01-03T02:10:32.554Z,99694.72
2023-01-03T02:13:08.336Z,99697.09
2023-01-03T02:15:49.515Z,99696.75
2023-01-03T02:18:07.140Z,99710.91
2023-01-03T02:20:46.825Z,99705.88
2023-01-03T02:23:12.371Z,99712.66
2023-01-03T02:25:35.065Z,99711.47
2023-01-03T02:27:59.259Z,99709.22
2023-01-03T02:30:24.847Z,99702.31
2023-01-03T02:32:51.276Z,99713.72
2023-01-03T02:34:58.669Z,99714.75
2023-01-03T02:37:14.582Z,99716.06
2023-01-03T02:39:45.246Z,99722.84
2023-01-03T02:42:30.087Z,99711.56
2023-01-03T02:44:35.833Z,99722.72
2023-01-03T02:46:47.246Z,99727.56
2023-01-03T02:49:05.964Z,99718.19
2023-01-03T02:51:24.569Z,99734.81
2023-01-03T02:53:33.292Z,99733.16
2023-01-03T02:55:38.830Z,99727.31
2023-01-03T02:57:47.837Z,99729.69
2023-01-03T02:59:54.236Z,99742.28
2023-01-03T03:01:55.942Z,99755.34
2023-01-03T03:04:01.274Z,99744.41
2023-01-03T03:06:23.199Z,99756.41
2023-01-03T03:08:26.294Z,99752.25
2023-01-03T03:10:50.371Z,99754.16
2023-01-03T03:13:13.225Z,99749.16
2023-01-03T03:15:17.626Z,99748.31
2023-01-03T03:17:28.895Z,99744.75
2023-01-03T03:20:15.830Z,99752.09
2023-01-03T03:22:58.535Z,99739.72
2023-01-03T03:25:10.798Z,99743.53
2023-01-03T03:27:34.477Z,99747.34
2023-01-03T03:29:36.152Z,99744.25
2023-01-03T03:31:44.246Z,99740.66
2023-01-03T03:34:07.212Z,99743.84
2023-01-03T03:36:17.057Z,99744.91
2023-01-03T03:38:26.371Z,99745.41
2023-01-03T03:40:51.349Z,99739.56
2023-01-03T03:43:58.063Z,99742.97
2023-01-03T03:46:14.736Z,99747.22
2023-01-03T03:48:52.455Z,99753.38
2023-01-03T03:51:17.565Z,99757.41
2023-01-03T03:53:25.181Z,99754.91
2023-01-03T03:55:34.648Z,99751.75
2023-01-03T03:57:43.275Z,99745.69
2023-01-03T03:59:50.481Z,99754.94
2023-01-03T04:01:56.176Z,99755.41
2023-01-03T04:04:03.703Z,99757.75
2023-01-03T04:06:22.606Z,99762.00
2023-01-03T04:08:24.927Z,99757.81
2023-01-03T04:10:28.330Z,99758.06
2023-01-03T04:12:31.958Z,99765.84
2023-01-03T04:14:33.625Z,99765.50
2023-01-03T04:16:39.869Z,99766.78
2023-01-03T04:18:41.466Z,99768.91
2023-01-03T04:20:45.947Z,99762.00
2023-01-03T04:22:49.812Z,99763.28
2023-01-03T04:24:56.856Z,99762.06
2023-01-03T04:27:01.147Z,99761.47
2023-01-03T04:29:05.652Z,99757.28
2023-01-03T04:31:07.241Z,99756.88
2023-01-03T04:33:09.200Z,99757.38
2023-01-03T04:35:11.495Z,99755.69
2023-01-03T04:37:13.362Z,99762.44
2023-01-03T04:39:14.958Z,99763.72
2023-01-03T04:41:16.793Z,99751.34
2023-01-03T04:43:37.113Z,99762.72
2023-01-03T04:45:39.574Z,99765.69
2023-01-03T04:47:44.335Z,99759.13
2023-01-03T04:49:52.199Z,99768.84
2023-01-03T04:51:53.960Z,99768.25
2023-01-03T04:53:56.103Z,99762.19
2023-01-03T04:55:57.816Z,99771.84
2023-01-03T04:57:59.401Z,99770.19
2023-01-03T05:00:03.285Z,99781.56
2023-01-03T05:02:05.195Z,99779.88
2023-01-03T05:04:12.890Z,99775.69
2023-01-03T05:06:15.145Z,99784.72
2023-01-03T05:08:16.709Z,99779.72
2023-01-03T05:10:18.318Z,99778.25
2023-01-03T05:12:20.491Z,99775.78
2023-01-03T05:14:22.242Z,99774.09
2023-01-03T05:16:23.951Z,99783.34
2023-01-03T05:18:28.114Z,99776.66
2023-01-03T05:20:50.275Z,99786.09
2023-01-03T05:23:10.217Z,99792.00
2023-01-03T05:25:30.876Z,99790.78
2023-01-03T05:27:33.644Z,99786.19
2023-01-03T05:29:36.644Z,99795.66
2023-01-03T05:31:38.604Z,99799.47
2023-01-03T05:33:41.113Z,99796.94
2023-01-03T05:35:48.431Z,99800.94
2023-01-03T05:37:55.763Z,99810.38
2023-01-03T05:39:57.639Z,99812.75
2023-01-03T05:42:02.354Z,99814.00
2023-01-03T05:44:08.218Z,99827.03
2023-01-03T05:46:09.985Z,99813.00
2023-01-03T05:48:11.545Z,99820.75
2023-01-03T05:50:13.501Z,99820.16
2023-01-03T05:52:15.161Z,99817.66
2023-01-03T05:54:18.550Z,99815.13
2023-01-03T05:56:20.223Z,99810.94
2023-01-03T05:58:21.826Z,99818.09
2023-01-03T06:00:23.533Z,99817.47
2023-01-03T06:02:25.260Z,99824.81
2023-01-03T06:04:26.735Z,99822.75
2023-01-03T06:06:28.537Z,99831.94
2023-01-03T06:08:30.432Z,99831.53
2023-01-03T06:10:32.113Z,99833.66
2023-01-03T06:12:33.972Z,99829.44
2023-01-03T06:14:35.452Z,99839.09
2023-01-03T06:16:56.102Z,99843.72
2023-01-03T06:18:59.550Z,99843.31
2023-01-03T06:21:04.143Z,99839.97
2023-01-03T06:23:06.041Z,99838.72
2023-01-03T06:25:07.898Z,99839.16
2023-01-03T06:27:09.504Z,99841.25
2023-01-03T06:29:13.932Z,99847.97
2023-01-03T06:31:16.501Z,99846.53
2023-01-03T06:33:18.299Z,99844.22
2023-01-03T06:35:20.227Z,99847.38
2023-01-03T06:37:23.162Z,99845.06
2023-01-03T06:39:25.570Z,99849.28
2023-01-03T06:41:27.318Z,99853.28
2023-01-03T06:43:29.238Z,99855.38
2023-01-03T06:45:49.502Z,99852.22
2023-01-03T06:48:09.681Z,99855.59
2023-01-03T06:50:30.052Z,99861.47
2023-01-03T06:52:50.735Z,99861.88
2023-01-03T06:54:53.716Z,99866.09
2023-01-03T06:56:55.702Z,99859.19
2023-01-03T06:58:57.456Z,99860.22
2023-01-03T07:01:05.580Z,99857.72
2023-01-03T07:03:11.327Z,99859.81
2023-01-03T07:05:13.994Z,99866.53
2023-01-03T07:07:15.829Z,99867.38
2023-01-03T07:09:17.924Z,99875.94
2023-01-03T07:11:20.684Z,99882.44
2023-01-03T07:13:41.626Z,99882.66
2023-01-03T07:15:45.120Z,99893.09
2023-01-03T07:17:46.835Z,99890.81
2023-01-03T07:19:48.396Z,99894.59
2023-01-03T07:21:52.135Z,99899.59
2023-01-03T07:23:55.635Z,99905.25
2023-01-03T07:25:57.102Z,99901.06
2023-01-03T07:28:05.409Z,99904.22
2023-01-03T07:30:09.825Z,99900.03
2023-01-03T07:32:14.217Z,99896.47
2023-01-03T07:34:18.614Z,99899.59
2023-01-03T07:36:21.797Z,99907.13
2023-01-03T07:38:23.542Z,99911.09
2023-01-03T07:40:25.170Z,99900.44
2023-01-03T07:42:45.545Z,99907.13
2023-01-03T07:44:47.587Z,99915.47
2023-01-03T07:46:49.243Z,99932.66
2023-01-03T07:48:52.834Z,99924.72
2023-01-03T07:50:58.214Z,99923.03
2023-01-03T07:53:17.031Z,99935.59
2023-01-03T07:55:21.139Z,99938.31
2023-01-03T07:57:22.840Z,99931.81
2023-01-03T07:59:24.536Z,99933.50
2023-01-03T08:01:28.547Z,99935.19
2023-01-03T08:03:30.177Z,99941.25
2023-01-03T08:05:40.422Z,99940.19
2023-01-03T08:07:41.995Z,99938.13
2023-01-03T08:10:02.406Z,99930.56
2023-01-03T08:12:22.678Z,99930.97
2023-01-03T08:14:26.786Z,99937.06
2023-01-03T08:16:28.908Z,99926.81
2023-01-03T08:18:30.777Z,99930.78
2023-01-03T08:20:32.523Z,99932.88
2023-01-03T08:22:34.142Z,99939.78
2023-01-03T08:24:35.737Z,99942.72
2023-01-03T08:26:37.821Z,99937.69
2023-01-03T08:28:40.859Z,99935.41
2023-01-03T08:30:48.664Z,99927.44
2023-01-03T08:32:50.600Z,99936.00
2023-01-03T08:34:54.347Z,99941.03
2023-01-03T08:37:01.721Z,99935.19
2023-01-03T08:39:09.339Z,99941.25
2023-01-03T08:41:13.736Z,99951.50
2023-01-03T08:43:18.475Z,99943.94
2023-01-03T08:45:20.671Z,99940.63
2023-01-03T08:47:22.716Z,99945.63
2023-01-03T08:49:24.936Z,99949.81
2023-01-03T08:51:28.379Z,99952.72
2023-01-03T08:53:30.032Z,99942.69
2023-01-03T08:55:33.299Z,99947.72
2023-01-03T08:57:35.129Z,99954.63
2023-01-03T08:59:36.707Z,99960.50
2023-01-03T09:01:39.023Z,99966.13
2023-01-03T09:03:41.834Z,99966.34
2023-01-03T09:05:46.372Z,99977.00
2023-01-03T09:07:48.025Z,99975.31
2023-01-03T09:09:49.938Z,99979.69
2023-01-03T09:11:51.752Z,99969.03
2023-01-03T09:13:55.542Z,99975.75
2023-01-03T09:16:10.050Z,99973.41
2023-01-03T09:18:12.681Z,99979.28
2023-01-03T09:20:16.380Z,99977.78
2023-01-03T09:22:20.899Z,99986.41
2023-01-03T09:24:22.600Z,99986.81
2023-01-03T09:26:25.025Z,99986.38
2023-01-03T09:28:29.895Z,99988.66
2023-01-03T09:30:31.617Z,99981.75
2023-01-03T09:32:33.407Z,99977.75
2023-01-03T09:34:35.431Z,99979.22
2023-01-03T09:36:38.708Z,99986.75
2023-01-03T09:38:40.482Z,99980.03
2023-01-03T09:40:45.344Z,99983.16
2023-01-03T09:43:05.532Z,99992.78
2023-01-03T09:45:08.281Z,99989.41
2023-01-03T09:47:20.178Z,99981.00
2023-01-03T09:49:26.338Z,99990.44
2023-01-03T09:52:02.236Z,99991.25
2023-01-03T09:54:23.962Z,99988.09
2023-01-03T09:56:25.824Z,99982.44
2023-01-03T09:58:46.743Z,99986.63
2023-01-03T10:01:15.253Z,99988.91
2023-01-03T10:03:50.305Z,99991.63
2023-01-03T10:06:20.731Z,99987.00
2023-01-03T10:08:31.034Z,99988.28
2023-01-03T10:10:45.013Z,99993.50
2023-01-03T10:13:05.065Z,99991.19
2023-01-03T10:15:27.812Z,99996.19
2023-01-03T10:18:37.545Z,99994.09
2023-01-03T10:21:07.794Z,99990.91
2023-01-03T10:23:11.210Z,99987.13
2023-01-03T10:25:20.489Z,99990.69
2023-01-03T10:27:26.646Z,99985.44
2023-01-03T10:29:33.429Z,99988.53
2023-01-03T10:32:16.224Z,99984.75
2023-01-03T10:34:17.901Z,99987.06
2023-01-03T10:36:21.834Z,99983.25
2023-01-03T10:38:25.854Z,99983.91
2023-01-03T10:40:49.778Z,99978.44
2023-01-03T10:42:55.430Z,99980.25
2023-01-03T10:45:01.787Z,99973.75
2023-01-03T10:47:16.041Z,99967.47
2023-01-03T10:49:30.562Z,99973.09
2023-01-03T10:51:43.706Z,99971.19
2023-01-03T10:53:45.563Z,99970.13
2023-01-03T10:55:50.840Z,99968.84
2023-01-03T10:57:52.408Z,99965.91
2023-01-03T11:00:01.320Z,99962.09
2023-01-03T11:02:09.259Z,99955.59
2023-01-03T11:04:22.570Z,99955.78
2023-01-03T11:06:24.609Z,99952.59
2023-01-03T11:08:46.056Z,99961.63
2023-01-03T11:10:57.497Z,99963.69
2023-01-03T11:13:01.532Z,99951.25
2023-01-03T11:15:37.907Z,99955.22
2023-01-03T11:18:02.612Z,99964.63
2023-01-03T11:20:18.184Z,99954.72
2023-01-03T11:22:39.220Z,99947.16
2023-01-03T11:24:50.277Z,99944.59
2023-01-03T11:27:11.106Z,99940.38
2023-01-03T11:29:30.215Z,99943.03
2023-01-03T11:31:54.943Z,99939.00
2023-01-03T11:34:23.596Z,99940.38
2023-01-03T11:36:57.446Z,99936.97
2023-01-03T11:39:45.907Z,99940.09
2023-01-03T11:42:00.115Z,99930.59
2023-01-03T11:44:32.611Z,99938.75
2023-01-03T11:46:47.592Z,99926.50
2023-01-03T11:49:16.389Z,99933.19
2023-01-03T11:51:24.638Z,99934.38
2023-01-03T11:53:35.966Z,99942.97
2023-01-03T11:56:01.221Z,99934.09
2023-01-03T11:58:30.416Z,99937.56
2023-01-03T12:01:09.392Z,99938.81
2023-01-03T12:03:48.386Z,99941.88
2023-01-03T12:06:08.409Z,99943.97
2023-01-03T12:08:53.407Z,99932.31
2023-01-03T12:11:06.071Z,99933.91
2023-01-03T12:13:12.496Z,99935.25
2023-01-03T12:15:24.940Z,99935.63
2023-01-03T12:17:52.991Z,99926.72
2023-01-03T12:20:19.753Z,99931.03
2023-01-03T12:22:35.894Z,99928.69
2023-01-03T12:24:52.655Z,99919.31
2023-01-03T12:27:05.705Z,99923.66
2023-01-03T12:29:25.207Z,99922.09
2023-01-03T12:31:56.354Z,99905.78
2023-01-03T12:34:19.715Z,99903.19
2023-01-03T12:36:45.471Z,99912.75
2023-01-03T12:39:07.871Z,99916.09
2023-01-03T12:41:34.405Z,99916.22
2023-01-03T12:43:46.894Z,99917.06
2023-01-03T12:46:13.110Z,99918.47
2023-01-03T12:48:33.190Z,99910.25
2023-01-03T12:50:34.699Z,99911.44
2023-01-03T12:52:41.209Z,99905.72
2023-01-03T12:55:02.451Z,99902.75
2023-01-03T12:57:04.237Z,99899.31
2023-01-03T12:59:15.417Z,99903.59
2023-01-03T13:01:35.869Z,99905.41
2023-01-03T13:03:43.278Z,99901.94
2023-01-03T13:05:50.530Z,99900.75
2023-01-03T13:08:04.671Z,99892.06
2023-01-03T13:10:18.421Z,99882.16
2023-01-03T13:12:28.024Z,99892.53
2023-01-03T13:14:30.153Z,99888.09
2023-01-03T13:16:35.671Z,99883.47
2023-01-03T13:18:37.495Z,99880.84
2023-01-03T13:20:47.872Z,99882.50
2023-01-03T13:23:04.233Z,99879.78
2023-01-03T13:25:27.832Z,99872.63
2023-01-03T13:27:37.891Z,99874.41
2023-01-03T13:29:45.907Z,99877.97
2023-01-03T13:32:06.190Z,99879.63
2023-01-03T13:34:19.085Z,99883.81
2023-01-03T13:36:22.063Z,99877.38
2023-01-03T13:38:38.190Z,99880.13
2023-01-03T13:41:16.769Z,99877.22
2023-01-03T13:43:26.832Z,99863.88
2023-01-03T13:45:39.301Z,99865.06
2023-01-03T13:47:43.655Z,99871.00
2023-01-03T13:49:53.664Z,99872.19
2023-01-03T13:51:57.883Z,99863.94
2023-01-03T13:54:13.824Z,99865.97
2023-01-03T13:56:15.280Z,99860.03
2023-01-03T14:01:37.560Z,99865.03
2023-01-03T14:03:58.286Z,99870.25
2023-01-03T14:06:17.455Z,99869.44
2023-01-03T14:08:35.514Z,99868.13
2023-01-03T14:11:07.045Z,99866.94
2023-01-03T14:13:27.627Z,99866.78
2023-01-03T14:15:32.109Z,99870.84
2023-01-03T14:17:36.383Z,99866.69
2023-01-03T14:19:42.618Z,99871.84
2023-01-03T14:21:55.245Z,99868.00
2023-01-03T14:24:01.114Z,99876.97
2023-01-03T14:26:17.685Z,99873.66
2023-01-03T14:28:26.450Z,99872.81
2023-01-03T14:30:32.768Z,99876.88
2023-01-03T14:32:35.978Z,99884.25
2023-01-03T14:34:44.352Z,99877.22
2023-01-03T14:36:50.353Z,99880.22
2023-01-03T14:39:01.214Z,99888.09
2023-01-03T14:41:03.470Z,99880.34
2023-01-03T14:43:08.295Z,99885.22
2023-01-03T14:45:18.355Z,99885.13
2023-01-03T14:47:20.192Z,99880.69
2023-01-03T14:49:25.756Z,99890.25
2023-01-03T14:51:31.494Z,99893.22
2023-01-03T14:53:34.587Z,99886.56
2023-01-03T14:55:39.745Z,99883.72
2023-01-03T14:57:44.689Z,99880.59
2023-01-03T14:59:47.452Z,99887.66
2023-01-03T15:01:49.651Z,99884.53
2023-01-03T15:03:55.530Z,99892.38
2023-01-03T15:06:01.124Z,99896.94
2023-01-03T15:08:14.738Z,99886.91
2023-01-03T15:10:48.216Z,99895.84
2023-01-03T15:12:56.251Z,99884.53
2023-01-03T15:15:29.348Z,99890.13
2023-01-03T15:17:32.569Z,99893.56
2023-01-03T15:19:35.721Z,99899.53
2023-01-03T15:21:38.591Z,99902.97
2023-01-03T15:23:43.015Z,99899.84
2023-01-03T15:25:44.632Z,99909.63
2023-01-03T15:27:50.918Z,99908.41
2023-01-03T15:29:52.917Z,99913.75
2023-01-03T15:31:54.715Z,99912.75
2023-01-03T15:34:01.737Z,99911.81
2023-01-03T15:36:26.347Z,99915.44
2023-01-03T15:38:34.456Z,99932.78
2023-01-03T15:40:47.466Z,99931.59
2023-01-03T15:43:08.333Z,99933.59
2023-01-03T15:45:30.222Z,99934.75
2023-01-03T15:47:31.934Z,99943.63
2023-01-03T15:49:40.221Z,99948.34
2023-01-03T15:51:51.705Z,99937.50
2023-01-03T15:53:53.589Z,99949.34
2023-01-03T15:56:19.257Z,99952.19
2023-01-03T15:58:20.966Z,99951.19
2023-01-03T16:00:24.345Z,99946.41
2023-01-03T16:02:26.396Z,99955.06
2023-01-03T16:04:31.076Z,99957.63
2023-01-03T16:06:33.014Z,99959.75
2023-01-03T16:08:39.850Z,99953.31
2023-01-03T16:10:41.525Z,99948.53
2023-01-03T16:12:43.550Z,99952.75
2023-01-03T16:14:48.170Z,99953.44
2023-01-03T16:16:53.846Z,99953.88
2023-01-03T16:18:56.042Z,99961.72
2023-01-03T16:20:57.775Z,99952.06
2023-01-03T16:23:01.740Z,99952.75
2023-01-03T16:25:05.467Z,99957.56
2023-01-03T16:27:24.690Z,99965.59
2023-01-03T16:29:26.143Z,99966.88
2023-01-03T16:31:33.651Z,99970.91
2023-01-03T16:33:39.088Z,99974.06
2023-01-03T16:35:40.792Z,99976.41
2023-01-03T16:37:43.597Z,99966.75
2023-01-03T16:39:48.325Z,99964.47
2023-01-03T16:42:11.365Z,99966.59
2023-01-03T16:44:17.219Z,99961.81
2023-01-03T16:46:23.813Z,99970.22
2023-01-03T16:48:33.530Z,99964.13
2023-01-03T16:50:40.047Z,99966.25
2023-01-03T16:52:49.179Z,99966.47
2023-01-03T16:54:51.378Z,99968.81
2023-01-03T16:56:53.113Z,99973.66
2023-01-03T16:58:54.625Z,99977.69
2023-01-03T17:00:56.343Z,99976.00
2023-01-03T17:02:59.922Z,99970.78
2023-01-03T17:05:04.858Z,99964.66
2023-01-03T17:07:09.736Z,99972.25
2023-01-03T17:09:26.696Z,99968.31
2023-01-03T17:11:28.992Z,99972.31
2023-01-03T17:13:38.001Z,99959.94
2023-01-03T17:15:41.256Z,99971.28
2023-01-03T17:17:42.849Z,99964.38
2023-01-03T17:20:04.601Z,99970.88
2023-01-03T17:22:07.335Z,99969.44
2023-01-03T17:24:16.549Z,99969.91
2023-01-03T17:26:21.439Z,99973.91
2023-01-03T17:28:23.298Z,99961.31
2023-01-03T17:30:27.948Z,99974.09
2023-01-03T17:32:30.546Z,99984.41
2023-01-03T17:34:36.763Z,99978.34
2023-01-03T17:36:45.447Z,99982.09
2023-01-03T17:38:53.031Z,99978.75
2023-01-03T17:41:02.153Z,99978.16
2023-01-03T17:43:06.517Z,99987.63
2023-01-03T17:45:30.434Z,99985.94
2023-01-03T17:47:51.866Z,99985.31
2023-01-03T17:49:53.734Z,99984.69
2023-01-03T17:51:59.560Z,99977.56
2023-01-03T17:54:01.770Z,99974.00
2023-01-03T17:56:03.497Z,99975.91
2023-01-03T17:58:05.700Z,99976.09
2023-01-03T18:00:28.588Z,99971.72
2023-01-03T18:02:31.513Z,99973.59
2023-01-03T18:05:05.369Z,99980.94
2023-01-03T18:07:04.113Z,99977.38
2023-01-03T18:09:13.684Z,99973.81
2023-01-03T18:11:18.842Z,99972.75
2023-01-03T18:13:22.559Z,99974.66
2023-01-03T18:15:24.184Z,99973.81
2023-01-03T18:17:29.901Z,99973.81
2023-01-03T18:19:33.911Z,99982.63
2023-01-03T18:21:38.957Z,99972.53
2023-01-03T18:23:40.561Z,99970.03
2023-01-03T18:25:42.151Z,99977.19
2023-01-03T18:27:55.812Z,99974.66
2023-01-03T18:29:58.366Z,99980.09
2023-01-03T18:32:01.948Z,99970.03
2023-01-03T18:34:04.487Z,99965.44
2023-01-03T18:36:06.939Z,99964.34
2023-01-03T18:38:31.098Z,99967.06
2023-01-03T18:40:32.883Z,99963.31
2023-01-03T18:42:53.951Z,99967.50
2023-01-03T18:44:55.636Z,99967.50
2023-01-03T18:46:57.751Z,99964.53
2023-01-03T18:48:59.525Z,99963.72
2023-01-03T18:51:01.295Z,99968.94
2023-01-03T18:53:04.541Z,99964.34
2023-01-03T18:55:14.797Z,99958.66
2023-01-03T18:57:22.081Z,99963.91
2023-01-03T18:59:32.180Z,99958.22
2023-01-03T19:01:34.161Z,99956.53
2023-01-03T19:03:40.234Z,99957.16
2023-01-03T19:05:42.026Z,99955.25
2023-01-03T19:07:45.500Z,99963.00
2023-01-03T19:09:47.285Z,99961.13
2023-01-03T19:11:49.474Z,99954.63
2023-01-03T19:13:55.221Z,99958.16
2023-01-03T19:16:00.168Z,99962.56
2023-01-03T19:18:04.075Z,99954.38
2023-01-03T19:20:06.943Z,99951.44
2023-01-03T19:22:20.610Z,99954.38
2023-01-03T19:24:40.551Z,99956.06
2023-01-03T19:26:51.798Z,99950.63
2023-01-03T19:28:56.899Z,99955.84
2023-01-03T19:30:58.773Z,99957.72
2023-01-03T19:33:12.151Z,99955.84
2023-01-03T19:35:15.832Z,99960.25
2023-01-03T19:37:26.433Z,99961.06
2023-01-03T19:39:33.663Z,99968.44
2023-01-03T19:42:04.538Z,99962.13
2023-01-03T19:44:06.181Z,99961.06
2023-01-03T19:46:18.412Z,99954.56
2023-01-03T19:48:23.219Z,99958.13
2023-01-03T19:50:30.831Z,99960.03
2023-01-03T19:52:32.412Z,99958.13
2023-01-03T19:54:34.137Z,99953.72
2023-01-03T19:56:36.039Z,99949.72
2023-01-03T19:58:42.075Z,99953.28
2023-01-03T20:00:47.501Z,99951.41
2023-01-03T20:03:00.915Z,99956.84
2023-01-03T20:05:03.530Z,99951.41
2023-01-03T20:07:13.472Z,99960.44
2023-01-03T20:09:15.507Z,99953.06
2023-01-03T20:11:22.783Z,99942.13
2023-01-03T20:13:26.815Z,99950.31
2023-01-03T20:15:42.537Z,99942.59
2023-01-03T20:17:44.229Z,99943.22
2023-01-03T20:19:45.987Z,99948.06
2023-01-03T20:21:49.871Z,99952.44
2023-01-03T20:23:54.510Z,99949.50
2023-01-03T20:25:56.207Z,99953.53
2023-01-03T20:27:59.096Z,99947.00
2023-01-03T20:30:00.811Z,99943.66
2023-01-03T20:32:02.575Z,99938.19
2023-01-03T20:34:06.694Z,99946.38
2023-01-03T20:36:22.566Z,99944.69
2023-01-03T20:38:26.789Z,99941.34
2023-01-03T20:40:28.822Z,99939.69
2023-01-03T20:42:30.931Z,99931.50
2023-01-03T20:44:32.556Z,99941.59
2023-01-03T20:46:34.232Z,99935.28
2023-01-03T20:48:35.875Z,99930.25
2023-01-03T20:50:40.658Z,99932.78
2023-01-03T20:52:51.520Z,99936.56
2023-01-03T20:54:53.571Z,99938.06
2023-01-03T20:56:55.316Z,99937.22
2023-01-03T20:58:56.839Z,99930.09
2023-01-03T21:01:04.874Z,99934.09
2023-01-03T21:03:13.375Z,99927.78
2023-01-03T21:05:17.579Z,99926.34
2023-01-03T21:07:50.400Z,99928.25
2023-01-03T21:09:54.721Z,99928.69
2023-01-03T21:11:56.542Z,99937.72
2023-01-03T21:14:00.601Z,99930.56
2023-01-03T21:16:02.659Z,99931.63
2023-01-03T21:18:06.232Z,99929.13
2023-01-03T21:21:40.373Z,99925.78
2023-01-03T21:23:01.160Z,99921.59
2023-01-03T21:25:03.054Z,99921.81
2023-01-03T21:27:04.567Z,99929.16
2023-01-03T21:29:12.313Z,99919.53
2023-01-03T21:31:20.136Z,99909.66
2023-01-03T21:33:22.175Z,99911.78
2023-01-03T21:35:28.885Z,99921.00
2023-01-03T21:37:30.447Z,99923.13
2023-01-03T21:39:33.505Z,99919.78
2023-01-03T21:41:56.168Z,99918.94
2023-01-03T21:44:00.959Z,99920.22
2023-01-03T21:46:12.152Z,99925.91
2023-01-03T21:48:18.381Z,99926.09
2023-01-03T21:50:20.935Z,99930.09
2023-01-03T21:52:22.498Z,99935.78
2023-01-03T21:54:26.267Z,99928.63
2023-01-03T21:56:27.957Z,99925.31
2023-01-03T21:58:32.447Z,99921.13
2023-01-03T22:00:36.923Z,99924.06
2023-01-03T22:03:00.941Z,99922.63
2023-01-03T22:05:04.304Z,99926.38
2023-01-03T22:07:08.400Z,99925.16
2023-01-03T22:09:32.642Z,99929.16
2023-01-03T22:11:34.838Z,99927.47
2023-01-03T22:13:38.942Z,99917.59
2023-01-03T22:15:40.689Z,99916.38
2023-01-03T22:17:45.124Z,99925.59
2023-01-03T22:19:47.019Z,99924.97
2023-01-03T22:21:48.724Z,99923.53
2023-01-03T22:23:50.298Z,99916.84
2023-01-03T22:25:51.879Z,99926.28
2023-01-03T22:27:57.975Z,99931.94
2023-01-03T22:30:03.814Z,99925.25
2023-01-03T22:32:05.543Z,99931.94
2023-01-03T22:34:07.220Z,99926.91
2023-01-03T22:36:09.411Z,99923.75
2023-01-03T22:38:10.856Z,99924.22
2023-01-03T22:40:16.871Z,99916.66
2023-01-03T22:42:19.892Z,99922.31
2023-01-03T22:44:21.490Z,99920.03
2023-01-03T22:46:26.268Z,99917.09
2023-01-03T22:48:28.064Z,99921.09
2023-01-03T22:50:29.545Z,99923.44
2023-01-03T22:52:31.611Z,99923.84
2023-01-03T22:54:35.233Z,99922.56
2023-01-03T22:56:36.846Z,99913.78
2023-01-03T22:58:40.482Z,99918.63
2023-01-03T23:00:42.552Z,99920.09
2023-01-03T23:02:44.370Z,99915.91
2023-01-03T23:04:50.827Z,99909.81
2023-01-03T23:06:53.969Z,99913.00
2023-01-03T23:08:56.358Z,99914.25
2023-01-03T23:11:34.377Z,99918.22
2023-01-03T23:13:36.350Z,99907.94
2023-01-03T23:15:41.291Z,99900.00
2023-01-03T23:17:58.202Z,99904.84
2023-01-03T23:20:02.159Z,99906.09
2023-01-03T23:22:09.441Z,99901.91
2023-01-03T23:24:16.130Z,99906.72
2023-01-03T23:26:18.074Z,99909.63
2023-01-03T23:28:25.002Z,99912.78
2023-01-03T23:30:30.266Z,99908.41
2023-01-03T23:32:32.702Z,99909.66
2023-01-03T23:34:34.329Z,99899.81
2023-01-03T23:36:36.037Z,99900.88
2023-01-03T23:38:37.572Z,99894.59
2023-01-03T23:40:41.065Z,99885.81
2023-01-03T23:42:42.799Z,99883.28
2023-01-03T23:44:44.560Z,99879.94
2023-01-03T23:46:46.454Z,99884.53
2023-01-03T23:48:48.951Z,99879.09
2023-01-03T23:50:50.659Z,99882.03
2023-01-03T23:52:53.426Z,99880.34
2023-01-03T23:55:03.630Z,99887.88
2023-01-03T23:57:08.523Z,99879.09
2023-01-03T23:59:12.136Z,99875.94
